createdAt,value
2023-03-07T00:00:51.606Z,7.30
2023-03-07T00:03:20.701Z,7.10
2023-03-07T00:05:48.866Z,6.97
2023-03-07T00:08:17.045Z,7.70
2023-03-07T00:10:45.715Z,8.67
2023-03-07T00:13:14.045Z,8.27
2023-03-07T00:15:44.009Z,6.97
2023-03-07T00:18:11.881Z,7.07
2023-03-07T00:20:39.722Z,6.73
2023-03-07T00:23:07.607Z,4.73
2023-03-07T00:25:35.465Z,5.67
2023-03-07T00:28:03.270Z,5.40
2023-03-07T00:30:31.414Z,5.37
2023-03-07T00:33:00.668Z,9.07
2023-03-07T00:35:28.680Z,7.30
2023-03-07T00:37:56.544Z,6.47
2023-03-07T00:40:24.966Z,9.20
2023-03-07T00:42:52.795Z,4.80
2023-03-07T00:45:20.668Z,4.00
2023-03-07T00:47:48.586Z,5.37
2023-03-07T00:50:18.231Z,5.17
2023-03-07T00:52:46.234Z,6.77
2023-03-07T00:55:14.126Z,5.20
2023-03-07T00:57:41.983Z,5.80
2023-03-07T01:00:11.858Z,4.30
2023-03-07T01:02:39.713Z,4.47
2023-03-07T01:05:08.161Z,2.87
2023-03-07T01:07:37.930Z,5.20
2023-03-07T01:10:06.705Z,5.27
2023-03-07T01:12:34.526Z,7.90
2023-03-07T01:15:05.208Z,4.07
2023-03-07T01:17:34.193Z,4.90
2023-03-07T01:20:02.470Z,5.37
2023-03-07T01:22:32.282Z,8.00
2023-03-07T01:25:01.644Z,4.60
2023-03-07T01:27:29.601Z,4.60
2023-03-07T01:29:58.102Z,4.47
2023-03-07T01:32:25.943Z,4.33
2023-03-07T01:34:53.849Z,2.90
2023-03-07T01:37:21.765Z,4.47
2023-03-07T01:39:51.973Z,5.40
2023-03-07T01:42:21.697Z,3.77
2023-03-07T01:45:02.127Z,5.53
2023-03-07T01:47:29.993Z,3.77
2023-03-07T01:49:59.822Z,4.77
2023-03-07T01:52:32.903Z,3.37
2023-03-07T01:55:04.442Z,7.67
2023-03-07T01:57:38.122Z,2.87
2023-03-07T02:00:11.486Z,5.83
2023-03-07T02:02:41.438Z,4.70
2023-03-07T02:05:14.118Z,6.57
2023-03-07T02:07:47.053Z,3.97
2023-03-07T02:10:16.647Z,3.63
2023-03-07T02:12:46.636Z,4.90
2023-03-07T02:15:16.026Z,3.53
2023-03-07T02:17:45.884Z,6.70
2023-03-07T02:20:27.895Z,4.33
2023-03-07T02:22:56.734Z,6.70
2023-03-07T02:25:30.839Z,3.80
2023-03-07T02:28:00.593Z,4.77
2023-03-07T02:30:28.579Z,3.07
2023-03-07T02:32:56.407Z,6.20
2023-03-07T02:35:26.325Z,2.27
2023-03-07T02:37:58.417Z,6.17
2023-03-07T02:40:30.712Z,4.93
2023-03-07T02:43:05.781Z,4.03
2023-03-07T02:45:33.644Z,4.27
2023-03-07T02:48:01.547Z,6.10
2023-03-07T02:50:29.802Z,3.60
2023-03-07T02:52:57.682Z,4.50
2023-03-07T02:55:25.567Z,3.77
2023-03-07T02:57:53.727Z,7.00
2023-03-07T03:00:23.765Z,4.77
2023-03-07T03:02:51.730Z,4.77
2023-03-07T03:05:19.522Z,4.00
2023-03-07T03:07:48.409Z,4.57
2023-03-07T03:10:17.108Z,4.27
2023-03-07T03:12:45.700Z,2.23
2023-03-07T03:15:14.098Z,2.90
2023-03-07T03:17:44.354Z,5.10
2023-03-07T03:20:13.252Z,3.47
2023-03-07T03:22:41.253Z,4.80
2023-03-07T03:25:11.526Z,2.47
2023-03-07T03:27:40.430Z,4.50
2023-03-07T03:30:10.521Z,5.27
2023-03-07T03:32:39.004Z,7.60
2023-03-07T03:35:09.552Z,3.57
2023-03-07T03:37:37.534Z,5.87
2023-03-07T03:40:06.925Z,4.90
2023-03-07T03:42:34.838Z,6.20
2023-03-07T03:45:02.773Z,3.80
2023-03-07T03:47:30.656Z,8.70
2023-03-07T03:49:58.498Z,7.37
2023-03-07T03:52:27.688Z,5.47
2023-03-07T03:54:55.597Z,6.80
2023-03-07T03:57:24.165Z,7.13
2023-03-07T03:59:52.404Z,3.70
2023-03-07T04:02:20.434Z,4.17
2023-03-07T04:04:48.439Z,5.60
2023-03-07T04:07:16.423Z,6.27
2023-03-07T04:09:46.284Z,4.67
2023-03-07T04:12:14.241Z,4.13
2023-03-07T04:14:42.038Z,3.27
2023-03-07T04:17:10.070Z,3.60
2023-03-07T04:19:38.236Z,4.30
2023-03-07T04:22:06.844Z,4.77
2023-03-07T04:24:34.938Z,5.20
2023-03-07T04:27:05.074Z,7.77
2023-03-07T04:29:33.201Z,8.30
2023-03-07T04:32:01.086Z,4.13
2023-03-07T04:34:28.977Z,5.77
2023-03-07T04:36:56.784Z,4.07
2023-03-07T04:39:24.824Z,4.67
2023-03-07T04:41:52.819Z,4.13
2023-03-07T04:44:22.279Z,6.83
2023-03-07T04:46:50.544Z,7.73
2023-03-07T04:49:18.449Z,4.43
2023-03-07T04:51:46.353Z,3.63
2023-03-07T04:54:14.325Z,3.30
2023-03-07T04:56:42.338Z,2.40
2023-03-07T04:59:10.351Z,4.20
2023-03-07T05:01:39.722Z,2.73
2023-03-07T05:04:07.657Z,2.60
2023-03-07T05:06:35.517Z,3.53
2023-03-07T05:09:03.564Z,3.03
2023-03-07T05:11:31.744Z,4.70
2023-03-07T05:13:59.585Z,3.23
2023-03-07T05:16:27.474Z,3.23
2023-03-07T05:18:56.756Z,2.73
2023-03-07T05:21:24.953Z,4.50
2023-03-07T05:23:52.866Z,5.03
2023-03-07T05:26:20.792Z,5.57
2023-03-07T05:28:49.368Z,3.80
2023-03-07T05:31:18.573Z,3.23
2023-03-07T05:33:46.546Z,3.00
2023-03-07T05:36:15.938Z,3.50
2023-03-07T05:38:44.601Z,3.80
2023-03-07T05:41:13.143Z,1.20
2023-03-07T05:43:41.088Z,1.73
2023-03-07T05:46:09.120Z,2.57
2023-03-07T05:48:36.913Z,3.20
2023-03-07T05:51:05.142Z,1.33
2023-03-07T05:53:34.609Z,1.43
2023-03-07T05:56:02.511Z,3.13
2023-03-07T19:08:49.978Z,2.50
2023-03-07T19:11:18.049Z,1.80
2023-03-07T19:13:46.028Z,3.13
2023-03-07T19:16:15.884Z,2.57
2023-03-07T19:18:45.322Z,2.07
2023-03-07T19:21:15.537Z,1.60
2023-03-07T19:23:43.818Z,5.53
2023-03-07T19:26:16.601Z,8.07
2023-03-07T19:28:45.619Z,12.03
2023-03-07T19:31:15.804Z,11.60
2023-03-07T19:33:44.700Z,8.03
2023-03-07T19:36:14.370Z,8.87
2023-03-07T19:38:43.595Z,8.13
2023-03-07T19:41:14.559Z,7.97
2023-03-07T19:43:42.631Z,9.20
2023-03-07T19:46:12.221Z,8.40
2023-03-07T19:48:40.893Z,8.90
2023-03-07T19:51:14.183Z,9.70
2023-03-07T19:53:43.756Z,7.70
2023-03-07T19:56:14.616Z,7.83
2023-03-07T19:58:42.718Z,6.70
2023-03-07T20:01:11.679Z,6.03
2023-03-07T20:03:40.113Z,4.27
2023-03-07T20:06:09.746Z,3.83
2023-03-07T20:08:37.719Z,3.27
2023-03-07T20:11:10.403Z,3.20
2023-03-07T20:13:40.041Z,5.87
2023-03-07T20:16:10.487Z,5.13
2023-03-07T20:18:39.168Z,5.80
2023-03-07T20:21:08.846Z,4.87
2023-03-07T20:23:36.887Z,6.60
2023-03-07T20:26:10.252Z,6.17
2023-03-07T20:28:39.888Z,6.53
2023-03-07T20:31:09.617Z,7.33
2023-03-07T20:33:38.823Z,10.47
2023-03-07T20:36:09.987Z,9.33
2023-03-07T20:38:38.674Z,13.90
2023-03-07T20:41:08.046Z,7.63
2023-03-07T20:43:36.270Z,6.47
2023-03-07T20:46:07.668Z,6.43
2023-03-07T20:48:35.973Z,8.43
2023-03-07T20:51:09.106Z,7.37
2023-03-07T20:53:36.903Z,9.07
2023-03-07T20:56:06.332Z,10.73
2023-03-07T20:58:34.521Z,5.03
2023-03-07T21:01:02.967Z,3.97
2023-03-07T21:03:32.417Z,4.77
2023-03-07T21:06:02.115Z,6.00
2023-03-07T21:08:34.220Z,2.67
2023-03-07T21:11:03.393Z,4.57
2023-03-07T21:13:32.565Z,5.17
2023-03-07T21:16:03.664Z,3.63
2023-03-07T21:18:33.667Z,2.43
2023-03-07T21:21:02.619Z,2.43
2023-03-07T21:23:30.749Z,3.37
2023-03-07T21:26:01.538Z,2.87
2023-03-07T21:28:29.610Z,4.30
2023-03-07T21:31:01.697Z,5.13
2023-03-07T21:33:30.621Z,2.93
2023-03-07T21:35:59.935Z,3.00
2023-03-07T21:38:28.192Z,1.60
2023-03-07T21:40:56.740Z,3.33
2023-03-07T21:43:25.079Z,2.77
2023-03-07T21:45:53.136Z,2.73
2023-03-07T21:48:21.997Z,2.63
2023-03-07T21:50:51.693Z,3.10
2023-03-07T21:53:20.996Z,3.63
2023-03-07T21:55:52.986Z,2.30
2023-03-07T21:58:21.041Z,2.83
2023-03-07T22:00:51.274Z,2.27
2023-03-07T22:03:19.937Z,3.20
2023-03-07T22:05:48.173Z,3.93
2023-03-07T22:08:17.484Z,5.50
2023-03-07T22:10:46.858Z,2.77
2023-03-07T22:13:14.847Z,2.90
2023-03-07T22:15:42.932Z,1.90
2023-03-07T22:18:10.841Z,2.40
2023-03-07T22:20:39.642Z,5.97
2023-03-07T22:23:07.452Z,2.03
2023-03-07T22:25:35.492Z,8.10
2023-03-07T22:28:04.903Z,8.67
2023-03-07T22:30:33.906Z,6.63
2023-03-07T22:33:01.756Z,5.13
2023-03-07T22:35:29.622Z,2.40
2023-03-07T22:37:57.500Z,2.80
2023-03-07T22:40:25.890Z,1.60
2023-03-07T22:42:54.009Z,3.27
2023-03-07T22:45:23.429Z,4.80
2023-03-07T22:47:51.391Z,5.20
2023-03-07T22:50:19.392Z,2.07
2023-03-07T22:52:47.236Z,3.97
2023-03-07T22:55:15.137Z,1.83
2023-03-07T22:57:43.770Z,3.57
2023-03-07T23:00:13.345Z,2.10
2023-03-07T23:02:42.707Z,1.43
2023-03-07T23:05:11.384Z,2.93
2023-03-07T23:07:39.967Z,2.80
2023-03-07T23:10:08.195Z,5.33
2023-03-07T23:12:36.850Z,1.67
2023-03-07T23:15:05.327Z,2.57
2023-03-07T23:17:33.516Z,2.17
2023-03-07T23:20:02.744Z,2.27
2023-03-07T23:22:30.940Z,4.87
2023-03-07T23:24:58.783Z,4.97
2023-03-07T23:27:26.625Z,1.63
2023-03-07T23:29:54.558Z,1.77
2023-03-07T23:32:22.507Z,1.33
2023-03-07T23:34:50.588Z,2.43
2023-03-07T23:37:19.783Z,6.80
2023-03-07T23:39:47.654Z,1.37
2023-03-07T23:42:16.851Z,1.70
2023-03-07T23:44:45.262Z,1.80
2023-03-07T23:47:13.278Z,3.20
2023-03-07T23:49:41.106Z,4.33
2023-03-07T23:52:09.465Z,1.70
2023-03-07T23:54:38.622Z,2.50
2023-03-07T23:57:06.516Z,1.80
2023-03-07T23:59:34.395Z,3.37
